sensor_id;sensor_type;location;lat;lon;timestamp;temperature;humidity
21616;DHT22;10970;48.714;9.584;2022-12-29T00:01:02;4.70;99.90
21616;DHT22;10970;48.714;9.584;2022-12-29T00:03:28;4.70;99.90
21616;DHT22;10970;48.714;9.584;2022-12-29T00:05:55;4.80;99.90
21616;DHT22;10970;48.714;9.584;2022-12-29T00:08:21;4.80;99.90
21616;DHT22;10970;48.714;9.584;2022-12-29T00:11:05;4.80;99.90
21616;DHT22;10970;48.714;9.584;2022-12-29T00:13:31;4.80;99.90
21616;DHT22;10970;48.714;9.584;2022-12-29T00:16:16;4.90;99.90
21616;DHT22;10970;48.714;9.584;2022-12-29T00:18:41;5.00;99.90
21616;DHT22;10970;48.714;9.584;2022-12-29T00:21:10;5.00;99.90
21616;DHT22;10970;48.714;9.584;2022-12-29T00:23:57;5.10;99.90
21616;DHT22;10970;48.714;9.584;2022-12-29T00:26:41;5.40;99.90
21616;DHT22;10970;48.714;9.584;2022-12-29T00:29:36;5.70;99.90
21616;DHT22;10970;48.714;9.584;2022-12-29T00:32:20;5.60;99.90
21616;DHT22;10970;48.714;9.584;2022-12-29T00:35:06;5.60;99.90
21616;DHT22;10970;48.714;9.584;2022-12-29T00:37:43;5.50;99.90
21616;DHT22;10970;48.714;9.584;2022-12-29T00:40:30;5.50;99.90
21616;DHT22;10970;48.714;9.584;2022-12-29T00:43:14;5.50;99.90
21616;DHT22;10970;48.714;9.584;2022-12-29T00:45:58;5.50;99.90
21616;DHT22;10970;48.714;9.584;2022-12-29T00:48:23;5.60;99.90
21616;DHT22;10970;48.714;9.584;2022-12-29T00:51:08;5.60;99.90
21616;DHT22;10970;48.714;9.584;2022-12-29T00:53:34;6.00;99.90
21616;DHT22;10970;48.714;9.584;2022-12-29T00:56:00;5.90;99.90
21616;DHT22;10970;48.714;9.584;2022-12-29T00:58:29;5.70;99.90
21616;DHT22;10970;48.714;9.584;2022-12-29T01:01:06;5.80;99.90
21616;DHT22;10970;48.714;9.584;2022-12-29T01:03:34;5.80;99.90
21616;DHT22;10970;48.714;9.584;2022-12-29T01:06:01;5.60;99.90
21616;DHT22;10970;48.714;9.584;2022-12-29T01:08:30;5.60;99.90
21616;DHT22;10970;48.714;9.584;2022-12-29T01:11:10;5.60;99.90
21616;DHT22;10970;48.714;9.584;2022-12-29T01:13:36;5.60;99.90
21616;DHT22;10970;48.714;9.584;2022-12-29T01:16:04;5.50;99.90
21616;DHT22;10970;48.714;9.584;2022-12-29T01:18:30;5.50;99.90
21616;DHT22;10970;48.714;9.584;2022-12-29T01:21:04;5.50;99.90
21616;DHT22;10970;48.714;9.584;2022-12-29T01:23:30;5.60;99.90
21616;DHT22;10970;48.714;9.584;2022-12-29T01:25:56;5.60;99.90
21616;DHT22;10970;48.714;9.584;2022-12-29T01:28:22;5.60;99.90
21616;DHT22;10970;48.714;9.584;2022-12-29T01:30:48;5.70;99.90
21616;DHT22;10970;48.714;9.584;2022-12-29T01:33:14;5.60;99.90
21616;DHT22;10970;48.714;9.584;2022-12-29T01:35:40;5.70;99.90
21616;DHT22;10970;48.714;9.584;2022-12-29T01:38:05;5.70;99.90
21616;DHT22;10970;48.714;9.584;2022-12-29T01:40:31;5.60;99.90
21616;DHT22;10970;48.714;9.584;2022-12-29T01:42:57;5.60;99.90
21616;DHT22;10970;48.714;9.584;2022-12-29T01:45:23;5.50;99.90
21616;DHT22;10970;48.714;9.584;2022-12-29T01:47:53;5.50;99.90
21616;DHT22;10970;48.714;9.584;2022-12-29T01:53:03;5.50;99.90
21616;DHT22;10970;48.714;9.584;2022-12-29T01:55:34;5.50;99.90
21616;DHT22;10970;48.714;9.584;2022-12-29T01:58:04;5.60;99.90
21616;DHT22;10970;48.714;9.584;2022-12-29T02:00:31;5.70;99.90
21616;DHT22;10970;48.714;9.584;2022-12-29T02:02:57;5.60;99.90
21616;DHT22;10970;48.714;9.584;2022-12-29T02:05:34;5.60;99.90
21616;DHT22;10970;48.714;9.584;2022-12-29T02:08:01;5.60;99.90
21616;DHT22;10970;48.714;9.584;2022-12-29T02:10:29;5.60;99.90
21616;DHT22;10970;48.714;9.584;2022-12-29T02:12:56;5.70;99.90
21616;DHT22;10970;48.714;9.584;2022-12-29T02:15:37;5.70;99.90
21616;DHT22;10970;48.714;9.584;2022-12-29T02:26:29;5.80;99.90
21616;DHT22;10970;48.714;9.584;2022-12-29T02:35:41;6.10;99.90
21616;DHT22;10970;48.714;9.584;2022-12-29T02:54:32;6.00;99.90
21616;DHT22;10970;48.714;9.584;2022-12-29T02:57:28;6.10;99.90
21616;DHT22;10970;48.714;9.584;2022-12-29T03:05:45;6.20;99.90
21616;DHT22;10970;48.714;9.584;2022-12-29T03:08:19;6.20;99.90
21616;DHT22;10970;48.714;9.584;2022-12-29T03:13:52;6.10;99.90
21616;DHT22;10970;48.714;9.584;2022-12-29T03:16:48;6.10;99.90
21616;DHT22;10970;48.714;9.584;2022-12-29T03:22:25;6.20;99.90
21616;DHT22;10970;48.714;9.584;2022-12-29T03:25:14;6.40;99.90
21616;DHT22;10970;48.714;9.584;2022-12-29T03:27:44;6.30;99.90
21616;DHT22;10970;48.714;9.584;2022-12-29T03:30:11;6.80;99.90
21616;DHT22;10970;48.714;9.584;2022-12-29T03:33:02;6.30;99.90
21616;DHT22;10970;48.714;9.584;2022-12-29T03:35:31;6.40;99.90
21616;DHT22;10970;48.714;9.584;2022-12-29T03:38:06;6.50;99.90
21616;DHT22;10970;48.714;9.584;2022-12-29T03:40:33;6.60;99.90
21616;DHT22;10970;48.714;9.584;2022-12-29T03:43:01;6.50;99.90
21616;DHT22;10970;48.714;9.584;2022-12-29T03:45:27;6.50;99.90
21616;DHT22;10970;48.714;9.584;2022-12-29T03:47:53;6.60;99.90
21616;DHT22;10970;48.714;9.584;2022-12-29T03:50:19;6.50;99.90
21616;DHT22;10970;48.714;9.584;2022-12-29T03:52:45;6.50;99.90
21616;DHT22;10970;48.714;9.584;2022-12-29T03:55:11;6.40;99.90
21616;DHT22;10970;48.714;9.584;2022-12-29T03:57:36;6.50;99.90
21616;DHT22;10970;48.714;9.584;2022-12-29T04:00:04;6.50;99.90
21616;DHT22;10970;48.714;9.584;2022-12-29T04:02:30;6.50;99.90
21616;DHT22;10970;48.714;9.584;2022-12-29T04:04:56;6.60;99.90
21616;DHT22;10970;48.714;9.584;2022-12-29T04:07:21;7.00;99.90
21616;DHT22;10970;48.714;9.584;2022-12-29T04:09:47;7.00;99.90
21616;DHT22;10970;48.714;9.584;2022-12-29T04:12:12;7.00;99.90
21616;DHT22;10970;48.714;9.584;2022-12-29T04:14:40;7.20;99.90
21616;DHT22;10970;48.714;9.584;2022-12-29T04:17:06;7.20;99.90
21616;DHT22;10970;48.714;9.584;2022-12-29T04:19:32;7.10;99.90
21616;DHT22;10970;48.714;9.584;2022-12-29T04:21:57;7.10;99.90
21616;DHT22;10970;48.714;9.584;2022-12-29T04:24:23;7.10;99.90
21616;DHT22;10970;48.714;9.584;2022-12-29T04:26:49;7.10;99.90
21616;DHT22;10970;48.714;9.584;2022-12-29T04:29:14;7.10;99.90
21616;DHT22;10970;48.714;9.584;2022-12-29T04:31:40;7.00;99.90
21616;DHT22;10970;48.714;9.584;2022-12-29T04:34:05;6.90;99.90
21616;DHT22;10970;48.714;9.584;2022-12-29T04:36:31;7.00;99.90
21616;DHT22;10970;48.714;9.584;2022-12-29T04:38:57;7.00;99.90
21616;DHT22;10970;48.714;9.584;2022-12-29T04:41:23;7.10;99.90
21616;DHT22;10970;48.714;9.584;2022-12-29T04:43:49;7.40;99.90
21616;DHT22;10970;48.714;9.584;2022-12-29T04:46:14;7.50;99.90
21616;DHT22;10970;48.714;9.584;2022-12-29T04:48:40;7.70;99.90
21616;DHT22;10970;48.714;9.584;2022-12-29T04:51:05;7.70;99.90
21616;DHT22;10970;48.714;9.584;2022-12-29T04:53:31;7.80;99.90
21616;DHT22;10970;48.714;9.584;2022-12-29T04:55:57;7.80;99.90
21616;DHT22;10970;48.714;9.584;2022-12-29T04:58:22;7.60;99.90
21616;DHT22;10970;48.714;9.584;2022-12-29T05:00:48;7.50;99.90
21616;DHT22;10970;48.714;9.584;2022-12-29T05:03:13;7.40;99.90
21616;DHT22;10970;48.714;9.584;2022-12-29T05:05:39;7.30;99.90
21616;DHT22;10970;48.714;9.584;2022-12-29T05:08:05;7.20;99.90
21616;DHT22;10970;48.714;9.584;2022-12-29T05:10:30;7.10;99.90
21616;DHT22;10970;48.714;9.584;2022-12-29T05:12:57;7.00;99.90
21616;DHT22;10970;48.714;9.584;2022-12-29T05:15:23;6.70;99.90
21616;DHT22;10970;48.714;9.584;2022-12-29T05:17:49;6.50;99.90
21616;DHT22;10970;48.714;9.584;2022-12-29T05:20:15;6.40;99.90
21616;DHT22;10970;48.714;9.584;2022-12-29T05:22:41;6.40;99.90
21616;DHT22;10970;48.714;9.584;2022-12-29T05:25:07;6.30;99.90
21616;DHT22;10970;48.714;9.584;2022-12-29T05:27:33;6.20;99.90
21616;DHT22;10970;48.714;9.584;2022-12-29T05:29:58;6.10;99.90
21616;DHT22;10970;48.714;9.584;2022-12-29T05:32:24;6.10;99.90
21616;DHT22;10970;48.714;9.584;2022-12-29T05:34:50;6.20;99.90
21616;DHT22;10970;48.714;9.584;2022-12-29T05:37:15;6.10;99.90
21616;DHT22;10970;48.714;9.584;2022-12-29T05:39:41;6.10;99.90
21616;DHT22;10970;48.714;9.584;2022-12-29T05:42:07;6.10;99.90
21616;DHT22;10970;48.714;9.584;2022-12-29T05:44:32;6.20;99.90
21616;DHT22;10970;48.714;9.584;2022-12-29T05:46:58;6.20;99.90
21616;DHT22;10970;48.714;9.584;2022-12-29T05:49:24;6.20;99.90
21616;DHT22;10970;48.714;9.584;2022-12-29T05:51:49;6.30;99.90
21616;DHT22;10970;48.714;9.584;2022-12-29T05:54:15;6.20;99.90
21616;DHT22;10970;48.714;9.584;2022-12-29T05:56:40;6.20;99.90
21616;DHT22;10970;48.714;9.584;2022-12-29T05:59:06;6.10;99.90
21616;DHT22;10970;48.714;9.584;2022-12-29T06:01:32;6.00;99.90
21616;DHT22;10970;48.714;9.584;2022-12-29T06:03:59;5.90;99.90
21616;DHT22;10970;48.714;9.584;2022-12-29T06:06:25;5.80;99.90
21616;DHT22;10970;48.714;9.584;2022-12-29T06:08:51;5.80;99.90
21616;DHT22;10970;48.714;9.584;2022-12-29T06:11:16;6.50;99.90
21616;DHT22;10970;48.714;9.584;2022-12-29T06:13:42;6.50;99.90
21616;DHT22;10970;48.714;9.584;2022-12-29T06:16:08;6.60;99.90
21616;DHT22;10970;48.714;9.584;2022-12-29T06:18:33;6.70;99.90
21616;DHT22;10970;48.714;9.584;2022-12-29T06:21:04;6.60;99.90
21616;DHT22;10970;48.714;9.584;2022-12-29T06:23:30;6.50;99.90
21616;DHT22;10970;48.714;9.584;2022-12-29T06:25:56;6.40;99.90
21616;DHT22;10970;48.714;9.584;2022-12-29T06:28:22;6.30;99.90
21616;DHT22;10970;48.714;9.584;2022-12-29T06:30:48;6.20;99.90
21616;DHT22;10970;48.714;9.584;2022-12-29T06:33:15;6.50;99.90
21616;DHT22;10970;48.714;9.584;2022-12-29T06:35:42;6.90;99.90
21616;DHT22;10970;48.714;9.584;2022-12-29T06:38:07;6.90;99.90
21616;DHT22;10970;48.714;9.584;2022-12-29T06:40:33;7.00;99.90
21616;DHT22;10970;48.714;9.584;2022-12-29T06:42:59;6.70;99.90
21616;DHT22;10970;48.714;9.584;2022-12-29T06:45:24;6.50;99.90
21616;DHT22;10970;48.714;9.584;2022-12-29T06:47:50;6.40;99.90
21616;DHT22;10970;48.714;9.584;2022-12-29T06:50:16;6.40;99.90
21616;DHT22;10970;48.714;9.584;2022-12-29T06:52:41;6.50;99.90
21616;DHT22;10970;48.714;9.584;2022-12-29T06:55:07;6.60;99.90
21616;DHT22;10970;48.714;9.584;2022-12-29T06:57:33;6.80;99.90
21616;DHT22;10970;48.714;9.584;2022-12-29T06:59:59;6.70;99.90
21616;DHT22;10970;48.714;9.584;2022-12-29T07:02:25;6.70;99.90
21616;DHT22;10970;48.714;9.584;2022-12-29T07:04:51;6.70;99.90
21616;DHT22;10970;48.714;9.584;2022-12-29T07:07:20;6.80;99.90
21616;DHT22;10970;48.714;9.584;2022-12-29T07:10:06;7.30;99.90
21616;DHT22;10970;48.714;9.584;2022-12-29T07:12:32;7.10;99.90
21616;DHT22;10970;48.714;9.584;2022-12-29T07:14:58;7.10;99.90
21616;DHT22;10970;48.714;9.584;2022-12-29T07:17:23;7.20;99.90
21616;DHT22;10970;48.714;9.584;2022-12-29T07:19:49;6.90;99.90
21616;DHT22;10970;48.714;9.584;2022-12-29T07:22:14;6.70;99.90
21616;DHT22;10970;48.714;9.584;2022-12-29T07:24:40;6.90;99.90
21616;DHT22;10970;48.714;9.584;2022-12-29T07:27:05;6.90;99.90
21616;DHT22;10970;48.714;9.584;2022-12-29T07:29:31;7.40;99.90
21616;DHT22;10970;48.714;9.584;2022-12-29T07:31:57;7.60;99.90
21616;DHT22;10970;48.714;9.584;2022-12-29T07:34:22;7.70;99.90
21616;DHT22;10970;48.714;9.584;2022-12-29T07:36:48;8.00;99.90
21616;DHT22;10970;48.714;9.584;2022-12-29T07:39:14;8.10;99.90
21616;DHT22;10970;48.714;9.584;2022-12-29T07:41:39;8.30;99.90
21616;DHT22;10970;48.714;9.584;2022-12-29T07:44:05;8.40;99.90
21616;DHT22;10970;48.714;9.584;2022-12-29T07:46:30;8.10;99.90
21616;DHT22;10970;48.714;9.584;2022-12-29T07:48:56;8.00;99.90
21616;DHT22;10970;48.714;9.584;2022-12-29T07:51:22;7.90;99.90
21616;DHT22;10970;48.714;9.584;2022-12-29T07:53:47;7.90;99.90
21616;DHT22;10970;48.714;9.584;2022-12-29T07:56:13;8.00;99.90
21616;DHT22;10970;48.714;9.584;2022-12-29T07:58:38;8.20;99.90
21616;DHT22;10970;48.714;9.584;2022-12-29T08:01:04;8.40;99.90
21616;DHT22;10970;48.714;9.584;2022-12-29T08:03:30;8.50;99.90
21616;DHT22;10970;48.714;9.584;2022-12-29T08:05:57;8.80;99.90
21616;DHT22;10970;48.714;9.584;2022-12-29T08:08:22;8.90;99.90
21616;DHT22;10970;48.714;9.584;2022-12-29T08:10:48;8.80;99.90
21616;DHT22;10970;48.714;9.584;2022-12-29T08:13:14;8.80;99.90
21616;DHT22;10970;48.714;9.584;2022-12-29T08:15:39;8.90;99.90
21616;DHT22;10970;48.714;9.584;2022-12-29T08:18:05;8.80;99.90
21616;DHT22;10970;48.714;9.584;2022-12-29T08:20:31;8.90;99.90
21616;DHT22;10970;48.714;9.584;2022-12-29T08:22:57;9.00;99.90
21616;DHT22;10970;48.714;9.584;2022-12-29T08:25:23;9.30;99.90
21616;DHT22;10970;48.714;9.584;2022-12-29T08:27:48;9.60;99.90
21616;DHT22;10970;48.714;9.584;2022-12-29T08:30:14;9.80;99.90
21616;DHT22;10970;48.714;9.584;2022-12-29T08:32:40;9.70;99.90
21616;DHT22;10970;48.714;9.584;2022-12-29T08:35:06;9.90;99.90
21616;DHT22;10970;48.714;9.584;2022-12-29T08:37:33;9.90;99.90
21616;DHT22;10970;48.714;9.584;2022-12-29T08:39:59;10.00;99.90
21616;DHT22;10970;48.714;9.584;2022-12-29T08:42:29;10.00;99.90
21616;DHT22;10970;48.714;9.584;2022-12-29T08:44:57;10.10;99.90
21616;DHT22;10970;48.714;9.584;2022-12-29T08:47:23;10.20;99.90
21616;DHT22;10970;48.714;9.584;2022-12-29T08:49:48;10.20;99.90
21616;DHT22;10970;48.714;9.584;2022-12-29T08:52:14;10.20;99.90
21616;DHT22;10970;48.714;9.584;2022-12-29T08:54:40;10.20;99.90
21616;DHT22;10970;48.714;9.584;2022-12-29T08:57:05;10.20;99.90
21616;DHT22;10970;48.714;9.584;2022-12-29T08:59:31;10.20;99.90
21616;DHT22;10970;48.714;9.584;2022-12-29T09:01:56;10.40;99.90
21616;DHT22;10970;48.714;9.584;2022-12-29T09:04:22;10.40;99.90
21616;DHT22;10970;48.714;9.584;2022-12-29T09:06:49;10.50;99.90
21616;DHT22;10970;48.714;9.584;2022-12-29T09:09:15;10.50;99.90
21616;DHT22;10970;48.714;9.584;2022-12-29T09:11:42;10.70;99.90
21616;DHT22;10970;48.714;9.584;2022-12-29T09:14:07;10.70;99.90
21616;DHT22;10970;48.714;9.584;2022-12-29T09:16:34;10.70;99.90
21616;DHT22;10970;48.714;9.584;2022-12-29T09:18:59;10.70;99.90
21616;DHT22;10970;48.714;9.584;2022-12-29T09:21:25;10.90;99.90
21616;DHT22;10970;48.714;9.584;2022-12-29T09:23:51;10.90;99.90
21616;DHT22;10970;48.714;9.584;2022-12-29T09:26:16;10.90;99.90
21616;DHT22;10970;48.714;9.584;2022-12-29T09:28:42;10.90;99.90
21616;DHT22;10970;48.714;9.584;2022-12-29T09:31:10;10.90;99.90
21616;DHT22;10970;48.714;9.584;2022-12-29T09:33:35;10.90;99.90
21616;DHT22;10970;48.714;9.584;2022-12-29T09:36:01;10.90;99.90
21616;DHT22;10970;48.714;9.584;2022-12-29T09:38:27;10.90;99.90
21616;DHT22;10970;48.714;9.584;2022-12-29T09:40:56;11.20;99.90
21616;DHT22;10970;48.714;9.584;2022-12-29T09:48:47;11.30;99.90
21616;DHT22;10970;48.714;9.584;2022-12-29T09:51:17;11.40;99.90
21616;DHT22;10970;48.714;9.584;2022-12-29T09:53:49;11.40;99.90
21616;DHT22;10970;48.714;9.584;2022-12-29T09:56:21;11.30;99.90
21616;DHT22;10970;48.714;9.584;2022-12-29T09:58:59;11.30;99.90
21616;DHT22;10970;48.714;9.584;2022-12-29T10:01:38;11.40;99.90
21616;DHT22;10970;48.714;9.584;2022-12-29T10:04:06;11.40;99.90
21616;DHT22;10970;48.714;9.584;2022-12-29T10:06:46;11.40;99.90
21616;DHT22;10970;48.714;9.584;2022-12-29T10:23:39;12.00;99.90
21616;DHT22;10970;48.714;9.584;2022-12-29T10:26:18;11.90;99.90
21616;DHT22;10970;48.714;9.584;2022-12-29T10:28:52;11.90;99.90
21616;DHT22;10970;48.714;9.584;2022-12-29T10:34:03;11.80;99.90
21616;DHT22;10970;48.714;9.584;2022-12-29T10:36:39;11.80;99.90
21616;DHT22;10970;48.714;9.584;2022-12-29T10:41:53;11.80;99.90
21616;DHT22;10970;48.714;9.584;2022-12-29T10:44:21;11.90;99.90
21616;DHT22;10970;48.714;9.584;2022-12-29T10:46:56;11.90;99.90
21616;DHT22;10970;48.714;9.584;2022-12-29T10:49:25;11.90;99.90
21616;DHT22;10970;48.714;9.584;2022-12-29T10:51:53;11.90;99.90
21616;DHT22;10970;48.714;9.584;2022-12-29T10:56:56;12.00;99.90
21616;DHT22;10970;48.714;9.584;2022-12-29T10:59:28;12.00;99.90
21616;DHT22;10970;48.714;9.584;2022-12-29T11:04:35;12.00;99.90
21616;DHT22;10970;48.714;9.584;2022-12-29T11:07:04;11.90;99.90
21616;DHT22;10970;48.714;9.584;2022-12-29T11:09:34;11.80;99.90
21616;DHT22;10970;48.714;9.584;2022-12-29T11:14:43;11.70;99.90
21616;DHT22;10970;48.714;9.584;2022-12-29T11:17:15;11.90;99.90
21616;DHT22;10970;48.714;9.584;2022-12-29T11:19:42;12.00;99.90
21616;DHT22;10970;48.714;9.584;2022-12-29T11:24:49;12.10;99.90
21616;DHT22;10970;48.714;9.584;2022-12-29T11:27:24;12.20;99.90
21616;DHT22;10970;48.714;9.584;2022-12-29T11:29:54;12.30;99.90
21616;DHT22;10970;48.714;9.584;2022-12-29T11:32:25;12.50;99.90
21616;DHT22;10970;48.714;9.584;2022-12-29T11:34:51;12.50;99.90
21616;DHT22;10970;48.714;9.584;2022-12-29T11:37:36;12.60;99.90
21616;DHT22;10970;48.714;9.584;2022-12-29T11:40:06;12.70;99.90
21616;DHT22;10970;48.714;9.584;2022-12-29T11:42:41;12.70;99.90
21616;DHT22;10970;48.714;9.584;2022-12-29T11:45:26;12.80;99.90
21616;DHT22;10970;48.714;9.584;2022-12-29T11:47:55;12.80;99.90
21616;DHT22;10970;48.714;9.584;2022-12-29T11:50:25;12.80;99.90
21616;DHT22;10970;48.714;9.584;2022-12-29T11:52:59;12.80;99.90
21616;DHT22;10970;48.714;9.584;2022-12-29T11:55:26;12.80;99.90
21616;DHT22;10970;48.714;9.584;2022-12-29T11:57:55;12.70;99.90
21616;DHT22;10970;48.714;9.584;2022-12-29T12:00:28;12.70;99.90
21616;DHT22;10970;48.714;9.584;2022-12-29T12:03:04;12.70;99.90
21616;DHT22;10970;48.714;9.584;2022-12-29T12:05:31;12.60;99.90
21616;DHT22;10970;48.714;9.584;2022-12-29T12:10:45;12.50;99.90
21616;DHT22;10970;48.714;9.584;2022-12-29T12:13:43;12.50;99.90
21616;DHT22;10970;48.714;9.584;2022-12-29T12:18:47;12.30;99.90
21616;DHT22;10970;48.714;9.584;2022-12-29T12:24:18;12.20;99.90
21616;DHT22;10970;48.714;9.584;2022-12-29T12:27:24;12.10;99.90
21616;DHT22;10970;48.714;9.584;2022-12-29T12:29:59;12.10;99.90
21616;DHT22;10970;48.714;9.584;2022-12-29T12:34:54;12.00;99.90
21616;DHT22;10970;48.714;9.584;2022-12-29T12:56:56;11.90;99.90
21616;DHT22;10970;48.714;9.584;2022-12-29T13:13:05;12.00;99.90
21616;DHT22;10970;48.714;9.584;2022-12-29T13:30:01;11.80;99.90
21616;DHT22;10970;48.714;9.584;2022-12-29T13:40:52;11.80;99.90
21616;DHT22;10970;48.714;9.584;2022-12-29T13:43:20;11.70;99.90
21616;DHT22;10970;48.714;9.584;2022-12-29T13:45:55;11.70;99.90
21616;DHT22;10970;48.714;9.584;2022-12-29T13:48:29;11.50;99.90
21616;DHT22;10970;48.714;9.584;2022-12-29T13:50:58;11.50;99.90
21616;DHT22;10970;48.714;9.584;2022-12-29T13:56:24;11.50;99.90
21616;DHT22;10970;48.714;9.584;2022-12-29T14:04:22;11.60;99.90
21616;DHT22;10970;48.714;9.584;2022-12-29T14:09:46;11.60;99.90
21616;DHT22;10970;48.714;9.584;2022-12-29T14:14:48;11.70;99.90
21616;DHT22;10970;48.714;9.584;2022-12-29T14:17:20;11.80;99.90
21616;DHT22;10970;48.714;9.584;2022-12-29T14:19:46;11.80;99.90
21616;DHT22;10970;48.714;9.584;2022-12-29T14:22:23;11.90;99.90
21616;DHT22;10970;48.714;9.584;2022-12-29T14:24:50;12.00;99.90
21616;DHT22;10970;48.714;9.584;2022-12-29T14:29:52;12.10;99.90
21616;DHT22;10970;48.714;9.584;2022-12-29T14:35:00;12.10;99.90
21616;DHT22;10970;48.714;9.584;2022-12-29T14:37:35;12.10;99.90
21616;DHT22;10970;48.714;9.584;2022-12-29T14:40:25;12.00;99.90
21616;DHT22;10970;48.714;9.584;2022-12-29T14:42:53;12.00;99.90
21616;DHT22;10970;48.714;9.584;2022-12-29T14:47:48;11.70;99.90
21616;DHT22;10970;48.714;9.584;2022-12-29T14:50:24;11.60;99.90
21616;DHT22;10970;48.714;9.584;2022-12-29T14:53:02;11.60;99.90
21616;DHT22;10970;48.714;9.584;2022-12-29T14:58:04;11.50;99.90
21616;DHT22;10970;48.714;9.584;2022-12-29T15:00:35;11.40;99.90
21616;DHT22;10970;48.714;9.584;2022-12-29T15:03:30;11.20;99.90
21616;DHT22;10970;48.714;9.584;2022-12-29T15:06:08;11.10;99.90
21616;DHT22;10970;48.714;9.584;2022-12-29T15:08:50;11.10;99.90
21616;DHT22;10970;48.714;9.584;2022-12-29T15:11:24;10.90;99.90
21616;DHT22;10970;48.714;9.584;2022-12-29T15:13:54;10.80;99.90
21616;DHT22;10970;48.714;9.584;2022-12-29T15:16:30;10.90;99.90
21616;DHT22;10970;48.714;9.584;2022-12-29T15:18:57;10.90;99.90
21616;DHT22;10970;48.714;9.584;2022-12-29T15:21:32;10.90;99.90
21616;DHT22;10970;48.714;9.584;2022-12-29T15:23:58;10.80;99.90
21616;DHT22;10970;48.714;9.584;2022-12-29T15:26:39;10.80;99.90
21616;DHT22;10970;48.714;9.584;2022-12-29T15:29:05;10.90;99.90
21616;DHT22;10970;48.714;9.584;2022-12-29T15:31:51;10.90;99.90
21616;DHT22;10970;48.714;9.584;2022-12-29T15:34:21;10.80;99.90
21616;DHT22;10970;48.714;9.584;2022-12-29T15:36:50;10.70;99.90
21616;DHT22;10970;48.714;9.584;2022-12-29T15:39:20;10.60;99.90
21616;DHT22;10970;48.714;9.584;2022-12-29T15:41:59;10.50;99.90
21616;DHT22;10970;48.714;9.584;2022-12-29T15:44:31;10.50;99.90
21616;DHT22;10970;48.714;9.584;2022-12-29T15:47:02;10.40;99.90
21616;DHT22;10970;48.714;9.584;2022-12-29T15:49:29;10.40;99.90
21616;DHT22;10970;48.714;9.584;2022-12-29T15:51:54;10.40;99.90
21616;DHT22;10970;48.714;9.584;2022-12-29T15:54:21;10.30;99.90
21616;DHT22;10970;48.714;9.584;2022-12-29T15:56:48;10.40;99.90
21616;DHT22;10970;48.714;9.584;2022-12-29T16:01:48;10.60;99.90
21616;DHT22;10970;48.714;9.584;2022-12-29T16:04:15;10.60;99.90
21616;DHT22;10970;48.714;9.584;2022-12-29T16:06:53;10.70;99.90
21616;DHT22;10970;48.714;9.584;2022-12-29T16:09:32;10.60;99.90
21616;DHT22;10970;48.714;9.584;2022-12-29T16:12:06;10.60;99.90
21616;DHT22;10970;48.714;9.584;2022-12-29T16:17:04;10.70;99.90
21616;DHT22;10970;48.714;9.584;2022-12-29T16:19:38;10.70;99.90
21616;DHT22;10970;48.714;9.584;2022-12-29T16:25:02;10.70;99.90
21616;DHT22;10970;48.714;9.584;2022-12-29T16:27:41;10.70;99.90
21616;DHT22;10970;48.714;9.584;2022-12-29T16:30:19;10.70;99.90
21616;DHT22;10970;48.714;9.584;2022-12-29T16:32:50;10.70;99.90
21616;DHT22;10970;48.714;9.584;2022-12-29T16:35:19;10.70;99.90
21616;DHT22;10970;48.714;9.584;2022-12-29T16:37:45;10.70;99.90
21616;DHT22;10970;48.714;9.584;2022-12-29T16:40:24;10.70;99.90
21616;DHT22;10970;48.714;9.584;2022-12-29T16:42:56;10.80;99.90
21616;DHT22;10970;48.714;9.584;2022-12-29T16:50:37;10.70;99.90
21616;DHT22;10970;48.714;9.584;2022-12-29T16:53:05;10.60;99.90
21616;DHT22;10970;48.714;9.584;2022-12-29T16:55:32;10.50;99.90
21616;DHT22;10970;48.714;9.584;2022-12-29T16:57:58;10.50;99.90
21616;DHT22;10970;48.714;9.584;2022-12-29T17:00:34;10.50;99.90
21616;DHT22;10970;48.714;9.584;2022-12-29T17:03:00;10.40;99.90
21616;DHT22;10970;48.714;9.584;2022-12-29T17:05:27;10.40;99.90
21616;DHT22;10970;48.714;9.584;2022-12-29T17:07:52;10.30;99.90
21616;DHT22;10970;48.714;9.584;2022-12-29T17:10:18;10.30;99.90
21616;DHT22;10970;48.714;9.584;2022-12-29T17:12:47;10.30;99.90
21616;DHT22;10970;48.714;9.584;2022-12-29T17:15:25;10.30;99.90
21616;DHT22;10970;48.714;9.584;2022-12-29T17:17:53;10.30;99.90
21616;DHT22;10970;48.714;9.584;2022-12-29T17:20:22;10.20;99.90
21616;DHT22;10970;48.714;9.584;2022-12-29T17:22:49;10.10;99.90
21616;DHT22;10970;48.714;9.584;2022-12-29T17:25:18;10.00;99.90
21616;DHT22;10970;48.714;9.584;2022-12-29T17:30:20;10.00;99.90
21616;DHT22;10970;48.714;9.584;2022-12-29T17:33:08;10.10;99.90
21616;DHT22;10970;48.714;9.584;2022-12-29T17:35:35;10.10;99.90
21616;DHT22;10970;48.714;9.584;2022-12-29T17:38:01;10.00;99.90
21616;DHT22;10970;48.714;9.584;2022-12-29T17:40:29;10.00;99.90
21616;DHT22;10970;48.714;9.584;2022-12-29T17:42:57;10.00;99.90
21616;DHT22;10970;48.714;9.584;2022-12-29T17:45:26;10.00;99.90
21616;DHT22;10970;48.714;9.584;2022-12-29T17:47:52;10.00;99.90
21616;DHT22;10970;48.714;9.584;2022-12-29T17:50:23;9.90;99.90
21616;DHT22;10970;48.714;9.584;2022-12-29T17:52:52;9.70;99.90
21616;DHT22;10970;48.714;9.584;2022-12-29T17:55:20;9.60;99.90
21616;DHT22;10970;48.714;9.584;2022-12-29T17:57:46;9.60;99.90
21616;DHT22;10970;48.714;9.584;2022-12-29T18:00:17;9.60;99.90
21616;DHT22;10970;48.714;9.584;2022-12-29T18:02:43;9.60;99.90
21616;DHT22;10970;48.714;9.584;2022-12-29T18:05:27;9.60;99.90
21616;DHT22;10970;48.714;9.584;2022-12-29T18:07:55;9.60;99.90
21616;DHT22;10970;48.714;9.584;2022-12-29T18:10:22;9.60;99.90
21616;DHT22;10970;48.714;9.584;2022-12-29T18:12:51;9.60;99.90
21616;DHT22;10970;48.714;9.584;2022-12-29T18:17:43;9.50;99.90
21616;DHT22;10970;48.714;9.584;2022-12-29T18:20:09;9.50;99.90
21616;DHT22;10970;48.714;9.584;2022-12-29T18:22:34;9.50;99.90
21616;DHT22;10970;48.714;9.584;2022-12-29T18:25:00;9.50;99.90
21616;DHT22;10970;48.714;9.584;2022-12-29T18:27:27;9.40;99.90
21616;DHT22;10970;48.714;9.584;2022-12-29T18:29:53;9.40;99.90
21616;DHT22;10970;48.714;9.584;2022-12-29T18:32:19;9.30;99.90
21616;DHT22;10970;48.714;9.584;2022-12-29T18:34:46;9.30;99.90
21616;DHT22;10970;48.714;9.584;2022-12-29T18:37:13;9.40;99.90
21616;DHT22;10970;48.714;9.584;2022-12-29T18:39:39;9.30;99.90
21616;DHT22;10970;48.714;9.584;2022-12-29T18:42:05;9.40;99.90
21616;DHT22;10970;48.714;9.584;2022-12-29T18:44:32;9.30;99.90
21616;DHT22;10970;48.714;9.584;2022-12-29T18:46:58;9.30;99.90
21616;DHT22;10970;48.714;9.584;2022-12-29T18:49:25;9.30;99.90
21616;DHT22;10970;48.714;9.584;2022-12-29T18:51:51;9.30;99.90
21616;DHT22;10970;48.714;9.584;2022-12-29T18:54:29;9.40;99.90
21616;DHT22;10970;48.714;9.584;2022-12-29T18:56:55;9.40;99.90
21616;DHT22;10970;48.714;9.584;2022-12-29T18:59:22;9.30;99.90
21616;DHT22;10970;48.714;9.584;2022-12-29T19:01:47;9.20;99.90
21616;DHT22;10970;48.714;9.584;2022-12-29T19:04:14;9.10;99.90